Time;durP1;ratioP1;P1;durP2;ratioP2;P2;SDS_P1;SDS_P2;PMS_P1;PMS_P2;Temp;Humidity;BMP_temperature;BMP_pressure;BME280_temperature;BME280_humidity;BME280_pressure;Samples;Min_cycle;Max_cycle;Signal;HPM_P1;HPM_P2
2024/03/09 00:00:17;;;;;;;2.78;2.58;;;;;;;;;;5062604;28;20061;-80
2024/03/09 00:02:46;;;;;;;3.00;2.70;;;;;;;;;;5065320;28;20033;-79
2024/03/09 00:05:12;;;;;;;6.45;3.60;;;;;;;;;;5065681;28;20095;-79
2024/03/09 00:07:39;;;;;;;11.80;5.18;;;;;;;;;;5072049;28;20043;-79
2024/03/09 00:10:05;;;;;;;7.03;3.97;;;;;;;;;;5066825;28;20067;-77
2024/03/09 00:12:33;;;;;;;4.20;3.80;;;;;;;;;;5084692;28;20032;-78
2024/03/09 00:15:03;;;;;;;5.68;3.60;;;;;;;;;;5089836;28;20060;-78
2024/03/09 00:17:30;;;;;;;;;;;;;;;;;;5076970;28;20036;-78
2024/03/09 00:20:00;;;;;;;6.70;3.42;;;;;;;;;;5057899;28;19972;-79
2024/03/09 00:22:27;;;;;;;3.95;3.53;;;;;;;;;;5078234;28;20063;-79
2024/03/09 00:24:54;;;;;;;4.28;3.92;;;;;;;;;;5093368;28;20039;-79
2024/03/09 00:27:26;;;;;;;5.80;3.30;;;;;;;;;;5073834;28;20036;-79
2024/03/09 00:29:54;;;;;;;2.75;2.60;;;;;;;;;;5094813;28;20039;-79
2024/03/09 00:32:21;;;;;;;3.38;2.97;;;;;;;;;;5077797;28;20124;-78
2024/03/09 00:34:47;;;;;;;2.90;2.63;;;;;;;;;;5089525;28;20128;-78
2024/03/09 00:37:13;;;;;;;3.03;2.83;;;;;;;;;;5089696;28;20048;-78
2024/03/09 00:39:39;;;;;;;2.67;2.47;;;;;;;;;;5073013;28;20031;-78
2024/03/09 00:42:08;;;;;;;2.40;2.30;;;;;;;;;;5052100;28;20032;-77
2024/03/09 00:44:35;;;;;;;2.55;2.35;;;;;;;;;;5078498;28;20074;-78
2024/03/09 00:47:01;;;;;;;3.00;2.55;;;;;;;;;;5064336;28;20028;-77
2024/03/09 00:49:30;;;;;;;3.95;2.20;;;;;;;;;;5082697;28;20044;-79
2024/03/09 00:51:56;;;;;;;1.95;1.85;;;;;;;;;;5065868;28;20135;-78
2024/03/09 00:54:22;;;;;;;2.47;2.00;;;;;;;;;;5080991;28;20036;-78
2024/03/09 00:56:49;;;;;;;2.45;2.25;;;;;;;;;;5067039;28;20036;-79
2024/03/09 00:59:16;;;;;;;3.75;1.98;;;;;;;;;;5083114;28;20100;-77
2024/03/09 01:01:42;;;;;;;2.65;2.45;;;;;;;;;;5073897;28;20059;-77
2024/03/09 01:04:09;;;;;;;2.38;2.17;;;;;;;;;;5077788;28;20028;-77
2024/03/09 01:06:37;;;;;;;1.75;1.65;;;;;;;;;;5055578;28;20400;-77
2024/03/09 01:09:03;;;;;;;1.70;1.60;;;;;;;;;;5075530;28;20415;-78
2024/03/09 01:11:30;;;;;;;2.30;2.10;;;;;;;;;;5069385;28;20047;-77
2024/03/09 01:13:56;;;;;;;1.48;1.48;;;;;;;;;;5087993;28;20028;-78
2024/03/09 01:16:22;;;;;;;2.20;2.10;;;;;;;;;;5088349;28;20029;-78
2024/03/09 01:18:49;;;;;;;7.55;2.25;;;;;;;;;;5075643;28;20126;-79
2024/03/09 01:21:15;;;;;;;3.83;2.17;;;;;;;;;;5089322;28;20134;-79
2024/03/09 01:23:40;;;;;;;1.98;1.88;;;;;;;;;;5067709;28;20052;-78
2024/03/09 01:26:09;;;;;;;2.00;1.90;;;;;;;;;;5084443;28;20690;-77
2024/03/09 01:28:36;;;;;;;2.20;2.10;;;;;;;;;;5080954;28;20563;-77
2024/03/09 01:31:05;;;;;;;1.90;1.80;;;;;;;;;;5087409;28;20040;-78
2024/03/09 01:33:33;;;;;;;2.30;2.10;;;;;;;;;;5076561;28;20020;-78
2024/03/09 01:35:59;;;;;;;5.70;1.90;;;;;;;;;;5090081;28;20025;-78
2024/03/09 01:38:25;;;;;;;1.88;1.77;;;;;;;;;;5079543;28;20052;-77
2024/03/09 01:40:51;;;;;;;1.67;1.67;;;;;;;;;;5069537;28;20138;-77
2024/03/09 01:43:20;;;;;;;2.30;1.90;;;;;;;;;;5082445;28;20060;-78
2024/03/09 01:45:49;;;;;;;2.47;1.70;;;;;;;;;;5103564;28;20054;-77
2024/03/09 01:48:20;;;;;;;1.98;1.67;;;;;;;;;;5093695;28;20036;-78
2024/03/09 01:50:46;;;;;;;2.40;2.20;;;;;;;;;;5107052;28;20129;-77
2024/03/09 01:53:13;;;;;;;1.73;1.63;;;;;;;;;;5099470;28;20051;-78
2024/03/09 01:55:39;;;;;;;2.65;1.90;;;;;;;;;;5056094;28;20028;-77
2024/03/09 01:58:05;;;;;;;1.63;1.52;;;;;;;;;;5077574;28;20094;-77
2024/03/09 02:00:34;;;;;;;1.98;1.75;;;;;;;;;;5075234;28;20063;-78
2024/03/09 02:03:01;;;;;;;1.98;1.88;;;;;;;;;;5088293;28;20033;-79
2024/03/09 02:05:27;;;;;;;1.80;1.70;;;;;;;;;;5074656;28;20035;-77
2024/03/09 02:07:52;;;;;;;1.75;1.65;;;;;;;;;;5091369;28;20044;-77
2024/03/09 02:10:18;;;;;;;1.73;1.63;;;;;;;;;;5076915;28;20063;-78
2024/03/09 02:12:45;;;;;;;2.00;1.80;;;;;;;;;;5061239;28;20035;-78
2024/03/09 02:15:16;;;;;;;1.85;1.75;;;;;;;;;;5096098;28;20039;-78
2024/03/09 02:17:42;;;;;;;1.60;1.50;;;;;;;;;;5068129;28;20040;-78
2024/03/09 02:20:10;;;;;;;1.80;1.70;;;;;;;;;;5092749;28;20079;-79
2024/03/09 02:22:37;;;;;;;1.90;1.80;;;;;;;;;;5092967;28;20067;-77
2024/03/09 02:25:05;;;;;;;1.35;1.35;;;;;;;;;;5071309;28;20549;-78
2024/03/09 02:27:31;;;;;;;2.33;2.00;;;;;;;;;;5068903;28;20036;-78
2024/03/09 02:29:57;;;;;;;1.90;1.80;;;;;;;;;;5066804;28;20033;-78
2024/03/09 02:32:23;;;;;;;1.95;1.85;;;;;;;;;;5079742;28;20028;-78
2024/03/09 02:34:49;;;;;;;1.55;1.45;;;;;;;;;;5094310;28;20492;-77
2024/03/09 02:37:20;;;;;;;1.77;1.67;;;;;;;;;;5072346;28;20050;-77
2024/03/09 02:39:46;;;;;;;4.30;1.77;;;;;;;;;;5070488;28;20558;-78
2024/03/09 02:42:13;;;;;;;2.90;1.67;;;;;;;;;;5061773;28;20071;-77
2024/03/09 02:44:40;;;;;;;1.50;1.50;;;;;;;;;;5074366;28;20115;-77
2024/03/09 02:47:07;;;;;;;3.47;1.67;;;;;;;;;;5075808;28;20114;-78
2024/03/09 02:49:35;;;;;;;1.42;1.42;;;;;;;;;;5072185;28;20036;-78
2024/03/09 02:52:01;;;;;;;1.40;1.40;;;;;;;;;;5086463;28;20063;-79
2024/03/09 02:54:27;;;;;;;1.90;1.80;;;;;;;;;;5077444;28;20032;-79
2024/03/09 02:56:53;;;;;;;1.63;1.52;;;;;;;;;;5087853;28;20036;-78
2024/03/09 02:59:19;;;;;;;1.60;1.50;;;;;;;;;;5075872;28;20048;-76
2024/03/09 03:01:47;;;;;;;2.13;1.92;;;;;;;;;;5086446;28;20043;-77
2024/03/09 03:04:14;;;;;;;1.60;1.40;;;;;;;;;;5092238;28;20031;-79
2024/03/09 03:06:41;;;;;;;1.55;1.45;;;;;;;;;;5089225;28;20118;-78
2024/03/09 03:09:15;;;;;;;1.98;1.60;;;;;;;;;;5093322;28;20052;-79
2024/03/09 03:11:41;;;;;;;3.05;1.67;;;;;;;;;;5072467;28;20036;-80
2024/03/09 03:14:07;;;;;;;2.35;1.40;;;;;;;;;;5079585;28;20051;-78
2024/03/09 03:16:35;;;;;;;2.15;1.95;;;;;;;;;;5090690;28;20028;-79
2024/03/09 03:19:03;;;;;;;2.00;1.42;;;;;;;;;;5094124;28;20135;-78
2024/03/09 03:21:29;;;;;;;2.08;1.40;;;;;;;;;;5097396;28;20020;-76
2024/03/09 03:23:55;;;;;;;1.90;1.80;;;;;;;;;;5059044;28;20480;-77
2024/03/09 03:26:21;;;;;;;1.48;1.38;;;;;;;;;;5074061;28;20028;-78
2024/03/09 03:28:47;;;;;;;1.38;1.38;;;;;;;;;;5080017;28;20098;-76
2024/03/09 03:31:16;;;;;;;1.90;1.80;;;;;;;;;;5032880;28;20044;-76
2024/03/09 03:33:42;;;;;;;2.25;2.00;;;;;;;;;;5079849;28;20024;-78
2024/03/09 03:36:08;;;;;;;2.45;1.70;;;;;;;;;;5089632;28;20032;-77
2024/03/09 03:38:37;;;;;;;1.77;1.67;;;;;;;;;;5069196;28;20044;-78
2024/03/09 03:41:04;;;;;;;1.80;1.70;;;;;;;;;;5089488;28;20032;-79
2024/03/09 03:43:30;;;;;;;2.30;2.10;;;;;;;;;;5071150;28;20035;-77
2024/03/09 03:45:57;;;;;;;2.08;1.70;;;;;;;;;;5060181;28;20102;-78
2024/03/09 03:48:23;;;;;;;1.90;1.80;;;;;;;;;;5057088;28;20116;-78
2024/03/09 03:50:49;;;;;;;3.05;1.77;;;;;;;;;;5082589;28;20044;-77
2024/03/09 03:53:15;;;;;;;2.35;2.15;;;;;;;;;;5066941;28;20143;-77
2024/03/09 03:55:42;;;;;;;5.50;2.33;;;;;;;;;;5080290;28;20119;-77
2024/03/09 03:58:08;;;;;;;7.32;2.30;;;;;;;;;;5064724;28;20431;-77
2024/03/09 04:00:34;;;;;;;3.30;1.83;;;;;;;;;;5053293;28;20074;-77
2024/03/09 04:02:59;;;;;;;3.38;2.30;;;;;;;;;;5079058;28;20071;-78
2024/03/09 04:05:29;;;;;;;2.15;2.05;;;;;;;;;;5080380;28;20082;-75
2024/03/09 04:07:56;;;;;;;2.00;1.85;;;;;;;;;;5061898;28;20330;-77
2024/03/09 04:10:22;;;;;;;2.53;2.25;;;;;;;;;;5065507;28;20047;-77
2024/03/09 04:12:48;;;;;;;1.92;1.83;;;;;;;;;;5082611;28;20074;-77
2024/03/09 04:15:13;;;;;;;7.32;2.30;;;;;;;;;;5079649;28;20040;-76
2024/03/09 04:17:40;;;;;;;2.13;2.00;;;;;;;;;;5059182;28;20032;-78
2024/03/09 04:20:06;;;;;;;9.77;2.30;;;;;;;;;;5081809;28;20040;-78
2024/03/09 04:22:32;;;;;;;1.90;1.80;;;;;;;;;;5075716;28;20119;-79
2024/03/09 04:25:08;;;;;;;3.72;2.95;;;;;;;;;;5080108;28;20028;-79
2024/03/09 04:27:34;;;;;;;2.55;2.35;;;;;;;;;;5082733;28;20048;-79
2024/03/09 04:30:01;;;;;;;2.25;2.10;;;;;;;;;;5075293;28;20511;-79
2024/03/09 04:32:30;;;;;;;2.78;2.40;;;;;;;;;;5064060;28;20032;-79
2024/03/09 04:34:57;;;;;;;2.72;2.20;;;;;;;;;;5084727;28;20032;-80
2024/03/09 04:37:26;;;;;;;2.60;2.40;;;;;;;;;;5084690;28;20060;-80
2024/03/09 04:39:52;;;;;;;2.15;2.03;;;;;;;;;;5073662;28;20028;-79
2024/03/09 04:42:18;;;;;;;4.13;2.75;;;;;;;;;;5087103;28;20040;-79
2024/03/09 04:44:43;;;;;;;4.30;2.63;;;;;;;;;;5085622;28;20028;-79
2024/03/09 04:47:09;;;;;;;5.90;3.08;;;;;;;;;;5061565;28;20037;-79
2024/03/09 04:49:35;;;;;;;3.13;2.40;;;;;;;;;;5049507;28;20496;-79
2024/03/09 04:52:01;;;;;;;2.85;2.30;;;;;;;;;;5080062;28;20112;-78
2024/03/09 04:54:27;;;;;;;3.03;2.70;;;;;;;;;;5049522;28;20024;-79
2024/03/09 04:56:52;;;;;;;6.32;3.65;;;;;;;;;;5030823;28;20031;-79
2024/03/09 04:59:18;;;;;;;5.43;2.50;;;;;;;;;;5064145;28;20097;-80
2024/03/09 05:01:47;;;;;;;2.35;1.90;;;;;;;;;;5056295;28;20522;-80
2024/03/09 05:04:14;;;;;;;2.00;1.90;;;;;;;;;;5092341;28;20711;-78
2024/03/09 05:06:44;;;;;;;2.28;2.10;;;;;;;;;;5080511;28;20336;-79
2024/03/09 05:09:14;;;;;;;2.00;1.90;;;;;;;;;;5079148;28;20044;-78
2024/03/09 05:11:40;;;;;;;2.28;2.17;;;;;;;;;;5066101;28;20128;-77
2024/03/09 05:14:06;;;;;;;4.88;2.05;;;;;;;;;;5027387;28;20029;-76
2024/03/09 05:16:32;;;;;;;2.35;2.17;;;;;;;;;;5064091;28;20036;-77
2024/03/09 05:18:59;;;;;;;2.33;2.13;;;;;;;;;;5057191;28;20036;-75
2024/03/09 05:21:25;;;;;;;2.30;2.15;;;;;;;;;;5069051;28;20040;-77
2024/03/09 05:23:51;;;;;;;2.83;2.63;;;;;;;;;;5078822;28;20097;-75
2024/03/09 05:26:18;;;;;;;2.28;2.17;;;;;;;;;;5080391;28;20024;-75
2024/03/09 05:28:45;;;;;;;1.83;1.73;;;;;;;;;;5075198;28;20041;-75
2024/03/09 05:31:21;;;;;;;1.73;1.63;;;;;;;;;;5074074;28;20045;-74
2024/03/09 05:33:46;;;;;;;2.10;2.00;;;;;;;;;;5079952;28;20024;-75
2024/03/09 05:36:12;;;;;;;1.90;1.83;;;;;;;;;;5063050;28;20044;-79
2024/03/09 05:38:38;;;;;;;2.10;2.00;;;;;;;;;;5082572;28;20097;-74
2024/03/09 05:41:06;;;;;;;1.70;1.65;;;;;;;;;;5078372;28;20035;-75
2024/03/09 05:43:32;;;;;;;1.38;1.38;;;;;;;;;;5055531;28;20032;-73
2024/03/09 05:45:58;;;;;;;1.83;1.73;;;;;;;;;;5059973;28;20453;-75
2024/03/09 05:48:24;;;;;;;1.95;1.85;;;;;;;;;;5081046;28;20040;-74
2024/03/09 05:50:50;;;;;;;1.83;1.73;;;;;;;;;;5076262;28;20045;-76
2024/03/09 05:53:17;;;;;;;1.92;1.85;;;;;;;;;;5083922;28;20028;-77
2024/03/09 05:55:43;;;;;;;2.75;1.70;;;;;;;;;;5066717;28;20039;-77
2024/03/09 05:58:09;;;;;;;1.70;1.70;;;;;;;;;;5065700;28;20035;-78
2024/03/09 06:00:36;;;;;;;1.98;1.80;;;;;;;;;;5081856;28;20451;-78
2024/03/09 06:03:03;;;;;;;1.60;1.50;;;;;;;;;;5068826;28;20032;-78
2024/03/09 06:05:30;;;;;;;1.83;1.73;;;;;;;;;;5085057;28;20028;-79
2024/03/09 06:07:56;;;;;;;1.52;1.42;;;;;;;;;;5064839;28;20041;-78
2024/03/09 06:10:22;;;;;;;1.40;1.40;;;;;;;;;;5061119;28;20122;-78
2024/03/09 06:12:48;;;;;;;2.00;1.80;;;;;;;;;;5058508;28;20051;-80
2024/03/09 06:15:14;;;;;;;1.40;1.40;;;;;;;;;;5088558;28;20039;-79
2024/03/09 06:17:42;;;;;;;1.40;1.40;;;;;;;;;;5083360;28;20071;-79
2024/03/09 06:20:08;;;;;;;1.88;1.70;;;;;;;;;;5085280;28;20074;-78
2024/03/09 06:22:34;;;;;;;1.85;1.75;;;;;;;;;;5058125;28;20419;-77
2024/03/09 06:25:00;;;;;;;3.08;1.60;;;;;;;;;;5068752;28;20051;-77
2024/03/09 06:27:27;;;;;;;1.88;1.77;;;;;;;;;;5080172;28;20059;-74
2024/03/09 06:29:56;;;;;;;1.75;1.65;;;;;;;;;;5083967;28;20033;-76
2024/03/09 06:32:28;;;;;;;1.88;1.77;;;;;;;;;;5087131;28;20403;-75
2024/03/09 06:34:54;;;;;;;1.58;1.58;;;;;;;;;;5089493;28;20028;-78
2024/03/09 06:37:22;;;;;;;1.10;1.10;;;;;;;;;;5095871;28;20044;-79
2024/03/09 06:39:48;;;;;;;1.70;1.60;;;;;;;;;;5074973;28;20041;-80
2024/03/09 06:42:14;;;;;;;1.85;1.75;;;;;;;;;;5089964;28;20031;-80
2024/03/09 06:44:40;;;;;;;1.45;1.42;;;;;;;;;;5094226;28;20107;-81
2024/03/09 06:47:06;;;;;;;1.60;1.50;;;;;;;;;;5096895;28;20047;-79
2024/03/09 06:49:35;;;;;;;1.45;1.45;;;;;;;;;;5082313;28;20119;-80
2024/03/09 06:52:04;;;;;;;1.77;1.67;;;;;;;;;;5104495;28;20027;-80
2024/03/09 06:54:30;;;;;;;1.45;1.45;;;;;;;;;;5094996;28;20063;-80
2024/03/09 06:56:56;;;;;;;1.40;1.40;;;;;;;;;;5101948;28;20028;-73
2024/03/09 06:59:22;;;;;;;2.22;1.40;;;;;;;;;;5073458;28;20037;-81
2024/03/09 07:01:51;;;;;;;3.63;1.33;;;;;;;;;;5096274;28;20029;-80
2024/03/09 07:04:18;;;;;;;1.45;1.45;;;;;;;;;;5100362;28;20026;-80
2024/03/09 07:06:45;;;;;;;1.65;1.55;;;;;;;;;;5083497;28;20036;-81
2024/03/09 07:09:11;;;;;;;1.80;1.70;;;;;;;;;;5077072;28;20032;-80
2024/03/09 07:11:38;;;;;;;2.15;1.80;;;;;;;;;;5082857;28;20078;-80
2024/03/09 07:14:04;;;;;;;2.95;2.30;;;;;;;;;;5093419;28;20169;-81
2024/03/09 07:16:30;;;;;;;4.72;2.92;;;;;;;;;;5090357;28;20075;-80
2024/03/09 07:18:56;;;;;;;2.20;1.95;;;;;;;;;;5092473;28;20139;-81
2024/03/09 07:21:23;;;;;;;3.15;2.13;;;;;;;;;;5064846;28;20021;-82
2024/03/09 07:23:50;;;;;;;6.05;2.03;;;;;;;;;;5059168;28;20066;-80
2024/03/09 07:26:16;;;;;;;1.90;1.80;;;;;;;;;;5045508;28;20031;-81
2024/03/09 07:29:01;;;;;;;2.15;1.55;;;;;;;;;;5066909;28;21052;-81
2024/03/09 07:31:27;;;;;;;1.90;1.80;;;;;;;;;;5086514;28;20036;-79
2024/03/09 07:33:53;;;;;;;1.67;1.58;;;;;;;;;;5084105;28;20032;-79
2024/03/09 07:36:22;;;;;;;3.95;1.70;;;;;;;;;;5075321;28;20028;-80
2024/03/09 07:38:49;;;;;;;1.63;1.55;;;;;;;;;;5091158;28;20039;-81
2024/03/09 07:41:20;;;;;;;1.77;1.67;;;;;;;;;;5061704;28;20114;-81
2024/03/09 07:43:46;;;;;;;3.08;2.47;;;;;;;;;;5097722;28;20044;-82
2024/03/09 07:46:12;;;;;;;2.70;1.60;;;;;;;;;;5086279;28;20029;-81
2024/03/09 07:48:39;;;;;;;1.70;1.60;;;;;;;;;;5076539;28;20155;-82
2024/03/09 07:51:08;;;;;;;1.70;1.60;;;;;;;;;;5098454;28;20587;-81
2024/03/09 07:53:34;;;;;;;2.30;1.85;;;;;;;;;;5083083;28;20059;-81
2024/03/09 07:56:00;;;;;;;2.92;2.17;;;;;;;;;;5098632;28;20046;-82
2024/03/09 07:58:26;;;;;;;1.70;1.60;;;;;;;;;;5101202;28;20036;-81
2024/03/09 08:00:53;;;;;;;6.07;2.08;;;;;;;;;;5096994;28;20040;-81
2024/03/09 08:03:20;;;;;;;2.20;2.00;;;;;;;;;;5096281;28;20025;-81
2024/03/09 08:05:45;;;;;;;1.70;1.60;;;;;;;;;;5092596;28;20050;-81
2024/03/09 08:08:11;;;;;;;2.45;2.00;;;;;;;;;;5059465;28;20040;-81
2024/03/09 08:10:46;;;;;;;2.45;1.60;;;;;;;;;;5081780;28;20044;-81
2024/03/09 08:13:13;;;;;;;4.63;1.70;;;;;;;;;;5091365;28;20031;-82
2024/03/09 08:15:39;;;;;;;2.15;2.05;;;;;;;;;;5091484;28;20032;-81
2024/03/09 08:18:08;;;;;;;2.28;2.08;;;;;;;;;;5066554;28;20040;-82
2024/03/09 08:20:34;;;;;;;2.28;2.08;;;;;;;;;;5088706;28;20359;-82
2024/03/09 08:23:01;;;;;;;2.28;2.17;;;;;;;;;;5076524;28;20040;-82
2024/03/09 08:25:27;;;;;;;1.75;1.65;;;;;;;;;;5078665;28;20057;-81
2024/03/09 08:27:54;;;;;;;4.85;1.85;;;;;;;;;;5085466;28;20103;-82
2024/03/09 08:30:20;;;;;;;3.83;1.70;;;;;;;;;;5101421;28;20516;-81
2024/03/09 08:32:47;;;;;;;2.00;1.90;;;;;;;;;;5072713;28;20103;-82
2024/03/09 08:35:14;;;;;;;2.40;2.17;;;;;;;;;;5093301;28;20110;-82
2024/03/09 08:37:41;;;;;;;1.65;1.55;;;;;;;;;;5077507;28;20122;-82
2024/03/09 08:40:11;;;;;;;4.60;2.00;;;;;;;;;;5064465;28;20590;-81
2024/03/09 08:42:40;;;;;;;2.22;2.03;;;;;;;;;;5099736;28;20032;-81
2024/03/09 08:45:09;;;;;;;1.83;1.73;;;;;;;;;;5084074;28;20147;-82
2024/03/09 08:47:36;;;;;;;2.38;2.17;;;;;;;;;;5077626;28;20379;-82
2024/03/09 08:50:02;;;;;;;1.92;1.83;;;;;;;;;;5084061;28;20113;-82
2024/03/09 08:52:28;;;;;;;3.35;1.83;;;;;;;;;;5082762;28;20032;-81
2024/03/09 08:54:53;;;;;;;2.45;2.28;;;;;;;;;;5086031;28;20040;-82
2024/03/09 08:57:20;;;;;;;1.90;1.80;;;;;;;;;;5104027;28;20050;-82
2024/03/09 08:59:59;;;;;;;2.72;2.05;;;;;;;;;;5071925;28;20111;-82
2024/03/09 09:02:41;;;;;;;1.88;1.73;;;;;;;;;;5103898;28;20008;-82
2024/03/09 09:05:14;;;;;;;1.75;1.65;;;;;;;;;;5100885;28;20035;-81
2024/03/09 09:07:42;;;;;;;2.55;2.35;;;;;;;;;;5068648;28;20043;-82
2024/03/09 09:10:20;;;;;;;1.55;1.55;;;;;;;;;;5087903;28;20099;-81
2024/03/09 09:12:49;;;;;;;1.85;1.75;;;;;;;;;;5086770;28;20028;-81
2024/03/09 09:15:24;;;;;;;1.80;1.70;;;;;;;;;;5069485;28;20004;-82
2024/03/09 09:17:55;;;;;;;2.00;1.90;;;;;;;;;;5065409;28;20039;-81
2024/03/09 09:20:29;;;;;;;2.10;2.00;;;;;;;;;;5048554;28;20056;-81
2024/03/09 09:22:56;;;;;;;3.17;1.67;;;;;;;;;;5100761;28;20101;-83
2024/03/09 09:25:30;;;;;;;1.70;1.60;;;;;;;;;;5065951;28;20039;-82
2024/03/09 09:28:02;;;;;;;2.17;2.00;;;;;;;;;;5056964;28;20048;-82
2024/03/09 09:30:29;;;;;;;1.83;1.80;;;;;;;;;;5091502;28;20069;-81
2024/03/09 09:32:56;;;;;;;1.92;1.83;;;;;;;;;;5099717;28;20483;-81
2024/03/09 09:35:22;;;;;;;2.40;2.20;;;;;;;;;;5061818;28;20020;-82
2024/03/09 09:37:48;;;;;;;2.35;2.20;;;;;;;;;;5050726;28;20291;-80
2024/03/09 09:40:14;;;;;;;2.97;2.70;;;;;;;;;;5071951;28;20064;-81
2024/03/09 09:42:40;;;;;;;2.33;2.22;;;;;;;;;;5061405;28;20036;-81
2024/03/09 09:45:17;;;;;;;4.78;1.95;;;;;;;;;;5078035;28;20543;-81
2024/03/09 09:47:47;;;;;;;1.60;1.50;;;;;;;;;;5059772;28;20505;-80
2024/03/09 09:50:19;;;;;;;5.03;2.85;;;;;;;;;;5048178;28;20065;-80
2024/03/09 09:52:49;;;;;;;3.03;2.42;;;;;;;;;;5070690;28;20070;-80
2024/03/09 09:55:19;;;;;;;4.03;2.33;;;;;;;;;;5063843;28;20041;-79
2024/03/09 09:57:50;;;;;;;2.30;2.10;;;;;;;;;;5064875;28;20048;-81
2024/03/09 10:00:17;;;;;;;3.70;2.45;;;;;;;;;;5023495;28;20064;-81
2024/03/09 10:02:43;;;;;;;2.22;2.13;;;;;;;;;;5024952;28;20046;-81
2024/03/09 10:05:13;;;;;;;1.65;1.33;;;;;;;;;;5031515;28;20087;-80
2024/03/09 10:08:01;;;;;;;2.22;2.05;;;;;;;;;;5043796;28;20127;-81
2024/03/09 10:10:27;;;;;;;2.10;2.00;;;;;;;;;;5077338;28;20047;-81
2024/03/09 10:13:25;;;;;;;2.15;2.05;;;;;;;;;;5073880;28;20033;-81
2024/03/09 10:15:53;;;;;;;2.33;2.22;;;;;;;;;;5079067;28;20504;-81
2024/03/09 10:18:21;;;;;;;1.48;1.48;;;;;;;;;;5069561;28;20061;-81
2024/03/09 10:20:49;;;;;;;2.38;1.83;;;;;;;;;;5053342;28;20089;-80
2024/03/09 10:23:16;;;;;;;4.05;1.90;;;;;;;;;;5066496;28;20032;-81
2024/03/09 10:25:41;;;;;;;2.20;2.08;;;;;;;;;;5053532;28;20060;-80
2024/03/09 10:28:08;;;;;;;2.00;1.90;;;;;;;;;;5038102;28;20044;-80
2024/03/09 10:30:37;;;;;;;2.38;2.28;;;;;;;;;;5056679;28;20837;-80
2024/03/09 10:33:03;;;;;;;2.85;2.65;;;;;;;;;;5076942;28;20025;-81
2024/03/09 10:35:29;;;;;;;1.90;1.80;;;;;;;;;;5072379;28;20115;-81
2024/03/09 10:37:55;;;;;;;2.33;2.13;;;;;;;;;;5072707;28;20048;-81
2024/03/09 10:40:25;;;;;;;2.13;1.80;;;;;;;;;;5068646;28;20116;-80
2024/03/09 10:42:54;;;;;;;1.50;1.50;;;;;;;;;;5067912;28;20510;-80
2024/03/09 10:48:05;;;;;;;1.80;1.70;;;;;;;;;;5075110;28;20059;-81
2024/03/09 10:50:35;;;;;;;4.05;1.83;;;;;;;;;;5076245;28;20063;-82
2024/03/09 10:53:11;;;;;;;2.22;2.13;;;;;;;;;;5076513;28;20059;-81
2024/03/09 10:55:47;;;;;;;2.20;2.10;;;;;;;;;;5073618;28;20099;-81
2024/03/09 10:58:14;;;;;;;2.35;2.25;;;;;;;;;;5079078;28;20045;-82
2024/03/09 11:00:42;;;;;;;2.25;2.10;;;;;;;;;;5081513;28;20048;-81
2024/03/09 11:03:16;;;;;;;1.88;1.80;;;;;;;;;;5061020;28;20028;-82
2024/03/09 11:05:41;;;;;;;1.90;1.80;;;;;;;;;;5071668;28;20024;-81
2024/03/09 11:08:10;;;;;;;1.73;1.63;;;;;;;;;;5071640;28;20586;-79
2024/03/09 11:10:41;;;;;;;1.90;1.80;;;;;;;;;;5047144;28;20581;-81
2024/03/09 11:13:09;;;;;;;1.92;1.77;;;;;;;;;;5060373;28;20477;-80
2024/03/09 11:15:36;;;;;;;2.30;2.10;;;;;;;;;;5049714;28;20074;-80
2024/03/09 11:18:06;;;;;;;1.63;1.63;;;;;;;;;;5068904;28;20484;-80
2024/03/09 11:20:32;;;;;;;2.13;2.03;;;;;;;;;;5066530;28;20128;-80
2024/03/09 11:22:58;;;;;;;2.22;2.10;;;;;;;;;;5069445;28;20127;-81
2024/03/09 11:25:42;;;;;;;2.20;2.10;;;;;;;;;;5066410;28;20509;-81
2024/03/09 11:28:08;;;;;;;2.78;1.63;;;;;;;;;;5057991;28;20069;-79
2024/03/09 11:30:34;;;;;;;1.95;1.85;;;;;;;;;;5056557;28;20056;-81
2024/03/09 11:33:01;;;;;;;1.65;1.55;;;;;;;;;;5056532;28;20026;-82
2024/03/09 11:35:33;;;;;;;1.90;1.80;;;;;;;;;;5047339;28;20032;-83
2024/03/09 11:38:09;;;;;;;3.83;2.20;;;;;;;;;;5060711;28;20052;-82
2024/03/09 11:40:35;;;;;;;1.83;1.73;;;;;;;;;;5068426;28;20033;-82
2024/03/09 11:43:04;;;;;;;1.83;1.73;;;;;;;;;;5064763;28;20082;-80
2024/03/09 11:45:30;;;;;;;1.58;1.55;;;;;;;;;;5062886;28;20036;-78
2024/03/09 11:47:56;;;;;;;2.00;1.90;;;;;;;;;;5058978;28;20072;-80
2024/03/09 11:50:24;;;;;;;1.50;1.50;;;;;;;;;;5060041;28;20041;-81
2024/03/09 11:52:53;;;;;;;2.60;2.05;;;;;;;;;;5062672;28;20568;-80
2024/03/09 11:55:20;;;;;;;2.30;2.10;;;;;;;;;;5058349;28;20024;-80
2024/03/09 11:57:52;;;;;;;2.65;2.20;;;;;;;;;;5056296;28;20094;-78
2024/03/09 12:00:18;;;;;;;4.68;2.20;;;;;;;;;;5077549;28;20044;-78
2024/03/09 12:02:43;;;;;;;1.83;1.73;;;;;;;;;;5065039;28;20089;-79
2024/03/09 12:05:15;;;;;;;2.05;1.95;;;;;;;;;;5085192;28;20025;-79
2024/03/09 12:07:47;;;;;;;1.70;1.60;;;;;;;;;;5081129;28;20052;-79
2024/03/09 12:10:13;;;;;;;2.20;1.95;;;;;;;;;;5069540;28;20749;-79
2024/03/09 12:12:43;;;;;;;2.10;1.90;;;;;;;;;;5062125;28;20040;-79
2024/03/09 12:15:10;;;;;;;2.10;1.90;;;;;;;;;;5067128;28;20036;-78
2024/03/09 12:17:37;;;;;;;1.75;1.70;;;;;;;;;;5063872;28;20040;-77
2024/03/09 12:20:05;;;;;;;2.22;2.10;;;;;;;;;;5047430;28;20035;-77
2024/03/09 12:22:31;;;;;;;1.80;1.67;;;;;;;;;;5063910;28;20189;-77
2024/03/09 12:24:57;;;;;;;1.83;1.73;;;;;;;;;;5066709;28;20498;-77
2024/03/09 12:27:24;;;;;;;1.75;1.70;;;;;;;;;;5066653;28;20040;-77
2024/03/09 12:29:50;;;;;;;1.90;1.80;;;;;;;;;;5046651;28;20032;-77
2024/03/09 12:32:17;;;;;;;1.92;1.83;;;;;;;;;;5067642;28;20043;-76
2024/03/09 12:34:43;;;;;;;2.10;2.00;;;;;;;;;;5049361;28;20111;-78
2024/03/09 12:37:09;;;;;;;1.48;1.48;;;;;;;;;;5081197;28;20169;-77
2024/03/09 12:39:38;;;;;;;1.42;1.42;;;;;;;;;;5063190;28;20620;-77
2024/03/09 12:42:06;;;;;;;;;;;;;;;;;;5060552;28;20133;-78
2024/03/09 12:44:37;;;;;;;2.40;2.20;;;;;;;;;;5060391;28;19913;-77
2024/03/09 12:47:03;;;;;;;1.63;1.63;;;;;;;;;;5058511;28;20029;-76
2024/03/09 12:49:28;;;;;;;1.52;1.20;;;;;;;;;;5065407;28;20281;-77
2024/03/09 12:51:54;;;;;;;1.10;1.10;;;;;;;;;;5050214;28;20034;-78
2024/03/09 12:54:23;;;;;;;5.70;2.22;;;;;;;;;;5061043;28;20036;-77
2024/03/09 12:56:49;;;;;;;2.55;2.00;;;;;;;;;;5061458;28;20147;-77
2024/03/09 12:59:26;;;;;;;2.60;2.10;;;;;;;;;;5045924;28;20080;-77
2024/03/09 13:01:52;;;;;;;1.77;1.63;;;;;;;;;;5042283;28;20039;-77
2024/03/09 13:04:18;;;;;;;1.85;1.75;;;;;;;;;;5065883;28;20400;-77
2024/03/09 13:06:44;;;;;;;1.73;1.63;;;;;;;;;;5064387;28;20044;-78
2024/03/09 13:09:16;;;;;;;2.05;1.95;;;;;;;;;;5077538;28;20047;-77
2024/03/09 13:11:42;;;;;;;1.88;1.77;;;;;;;;;;5061916;28;20044;-77
2024/03/09 13:14:08;;;;;;;1.92;1.83;;;;;;;;;;5080710;28;20043;-77
2024/03/09 13:16:34;;;;;;;1.98;1.73;;;;;;;;;;5049995;28;20652;-77
2024/03/09 13:19:00;;;;;;;3.50;1.65;;;;;;;;;;5080962;28;20059;-77
2024/03/09 13:21:27;;;;;;;2.10;1.90;;;;;;;;;;5064642;28;20032;-77
2024/03/09 13:23:57;;;;;;;1.70;1.60;;;;;;;;;;5048826;28;20877;-77
2024/03/09 13:26:23;;;;;;;2.75;1.67;;;;;;;;;;5063328;28;20039;-78
2024/03/09 13:28:51;;;;;;;2.03;1.92;;;;;;;;;;5063713;28;20040;-77
2024/03/09 13:31:27;;;;;;;1.30;1.30;;;;;;;;;;5081503;28;20050;-78
2024/03/09 13:33:54;;;;;;;1.80;1.73;;;;;;;;;;5051616;28;20849;-76
2024/03/09 13:36:25;;;;;;;10.40;1.60;;;;;;;;;;5058350;28;20511;-75
2024/03/09 13:38:51;;;;;;;1.75;1.60;;;;;;;;;;5060820;28;20051;-75
2024/03/09 13:41:17;;;;;;;1.77;1.70;;;;;;;;;;5077008;28;20044;-76
2024/03/09 13:43:44;;;;;;;1.48;1.45;;;;;;;;;;5075315;28;20537;-76
2024/03/09 13:46:10;;;;;;;4.28;1.90;;;;;;;;;;5076148;28;20043;-76
2024/03/09 13:48:40;;;;;;;1.88;1.77;;;;;;;;;;5055715;28;20047;-76
2024/03/09 13:51:12;;;;;;;2.03;1.92;;;;;;;;;;5059077;28;20043;-75
2024/03/09 13:53:48;;;;;;;1.83;1.73;;;;;;;;;;5078128;28;20070;-76
2024/03/09 13:56:15;;;;;;;2.88;1.73;;;;;;;;;;5075111;28;20433;-75
2024/03/09 13:58:47;;;;;;;2.45;2.13;;;;;;;;;;5074829;28;20668;-76
2024/03/09 14:01:14;;;;;;;3.15;1.90;;;;;;;;;;5078614;28;20187;-75
2024/03/09 14:03:44;;;;;;;4.22;2.00;;;;;;;;;;5077550;28;20089;-76
2024/03/09 14:06:11;;;;;;;1.98;1.80;;;;;;;;;;5080305;28;20085;-75
2024/03/09 14:08:39;;;;;;;2.10;1.90;;;;;;;;;;5083782;28;20040;-76
2024/03/09 14:13:50;;;;;;;1.83;1.73;;;;;;;;;;5069935;28;20036;-75
2024/03/09 14:16:18;;;;;;;1.70;1.60;;;;;;;;;;5083350;28;20050;-74
2024/03/09 14:18:50;;;;;;;2.25;2.05;;;;;;;;;;5083002;28;20050;-74
2024/03/09 14:21:34;;;;;;;2.75;2.47;;;;;;;;;;5076985;28;21326;-75
2024/03/09 14:24:03;;;;;;;1.80;1.70;;;;;;;;;;5088707;28;20029;-76
2024/03/09 14:26:29;;;;;;;1.83;1.73;;;;;;;;;;5078051;28;20035;-76
2024/03/09 14:28:58;;;;;;;1.70;1.60;;;;;;;;;;5068174;28;20044;-77
2024/03/09 14:31:30;;;;;;;1.33;1.33;;;;;;;;;;5079848;28;20113;-76
2024/03/09 14:33:58;;;;;;;1.83;1.42;;;;;;;;;;5054446;28;20028;-74
2024/03/09 14:36:24;;;;;;;1.40;1.38;;;;;;;;;;5067865;28;20119;-75
2024/03/09 14:38:54;;;;;;;4.15;2.17;;;;;;;;;;5054079;28;20127;-74
2024/03/09 14:41:22;;;;;;;2.08;1.98;;;;;;;;;;5070143;28;20040;-75
2024/03/09 14:43:48;;;;;;;2.05;1.95;;;;;;;;;;5086578;28;20075;-74
2024/03/09 14:46:14;;;;;;;1.77;1.67;;;;;;;;;;5062894;28;20500;-75
2024/03/09 14:48:53;;;;;;;1.88;1.77;;;;;;;;;;5075423;28;20059;-75
2024/03/09 14:51:22;;;;;;;1.75;1.65;;;;;;;;;;5090331;28;20060;-74